x

Northwestern Hawaii Two - 190nm Nw Of Kauai Is, Hi (51101) Wave Buoy

9:50pm - Wed 27th Jul 2016 All times are HST. -10 hours from GMT.

  • Sig Wave height 4.3ft
  • Swell Direction
  • Peak Period 7s
  • Average Period 5s
  • Wind
    18mph, 20mph gusts
  • Sea Temp 80°f
  • Air Temp 79°f
  • Sea Pressure 1018.4mb
  • Northwestern Hawaii Two - 190nm Nw Of Kauai Is, Hi
  • Northwestern Hawaii Two - 190nm Nw Of Kauai Is, Hi

More Historic Weather Station data

Upgrade to MSW Pro to gain access to the past 30 days of data for over 8000 Wavebouys and Weather Stations around the globe.

Join Pro

Comparision Forecast

View Surf forecast
   
Wed 07/27 9:50pm 4.5ft 7s 5s 18 20 mph 1018.4mb 80f 79f
8:50pm 4.5ft 6s 5s 18 20 mph 1017.9mb 80f 79f
7:50pm 4.5ft 6s 5s 16 20 mph 1017.5mb 80f 79f
6:50pm 4.5ft 7s 5s 16 18 mph 1017.1mb 80f 79f
5:50pm 4ft 8s 5s 16 18 mph 1016.8mb 80f 79f
4:50pm 4.5ft 7s 5s 16 18 mph 1016.8mb 80f 79f
3:50pm 4ft 9s 5s 16 18 mph 1017mb 80f 79f
2:50pm 4.5ft 8s 5s 16 18 mph 1017.3mb 79f 79f
1:50pm 4ft 6s 5s 16 20 mph 1017.8mb 79f 79f
12:50pm 4ft 7s 5s 16 18 mph 1018.1mb 79f 79f
11:50am 4.5ft 9s 5s 13 16 mph 1018.4mb 79f 79f
10:50am 4ft 13s 5s 13 16 mph 1018.3mb 79f 79f
9:50am 4.5ft 7s 6s 13 16 mph 1018.4mb 79f 78f
8:50am 4.5ft 8s 5s 13 16 mph 1018.3mb 79f 78f
7:50am 4.5ft 7s 6s 20 22 mph 1017.9mb 79f 76f
6:50am 4ft 14s 6s 11 13 mph 1017.8mb 79f 78f
5:50am 4.5ft 8s 6s 11 13 mph 1017.3mb 79f 78f
4:50am 4.5ft 10s 6s 11 16 mph 1017mb 79f 78f
3:50am 4.5ft 10s 6s 11 13 mph 1016.9mb 79f 78f
2:50am 4ft 9s 6s 13
mph
1016.7mb 79f 78f
1:50am 4ft 8s 5s 13 16 mph 1017mb 79f 78f
12:50am 4.5ft 14s 6s 13 16 mph 1017.4mb 79f 78f
Tue 07/26 11:50pm 4.5ft 7s 6s 13 16 mph 1017.8mb 79f 78f
10:50pm 4.5ft 7s 6s 11 13 mph 1017.8mb 79f 79f
9:50pm 4.5ft 8s 6s 11 16 mph 1017.6mb 79f 79f
8:50pm 5ft 10s 6s 11 13 mph 1017.3mb 80f 79f
7:50pm 5ft 8s 6s 11 13 mph 1016.9mb 80f 79f
6:50pm 5ft 6s 6s 9 11 mph 1016.5mb 80f 80f
5:50pm 5ft 7s 6s 11 13 mph 1016.3mb 80f 80f
4:50pm 5ft 8s 6s 13 16 mph 1016.1mb 80f 80f
3:50pm 4.5ft 7s 6s 13 16 mph 1016.1mb 80f 80f
2:50pm 5ft 8s 6s 13 16 mph 1016.2mb 79f 79f
1:50pm 5ft 8s 6s 11 13 mph 1016.5mb 79f 79f
12:50pm 5ft 8s 6s 13 16 mph 1016.8mb 79f 80f
11:50am 5ft 8s 6s 11 13 mph 1017mb 78f 79f
10:50am 6ft 8s 6s 9 11 mph 1017mb 78f 80f
9:50am 5.5ft 8s 6s 13
mph
1016.6mb 78f 79f
8:50am 6ft 8s 6s 11 13 mph 1016.5mb 78f 79f
7:50am 6ft 8s 6s 11 13 mph 1016.2mb 78f 80f
6:50am 6ft 7s 6s 11 13 mph 1015.7mb 78f 79f
5:50am 6ft 8s 6s 11 13 mph 1015.1mb 78f 79f
4:50am 6ft 8s 6s 13 16 mph 1014.8mb 78f 79f
3:50am 6.5ft 8s 6s 11 16 mph 1014.6mb 78f 77f
2:50am 6ft 9s 6s 13 16 mph 1014.7mb 78f 78f
1:50am 6ft 9s 6s 16 20 mph 1015mb 78f 78f
12:50am 7ft 9s 6s 18 20 mph 1015.4mb 78f 78f
Mon 07/25 11:50pm 6.5ft 9s 6s 16 20 mph 1015.9mb 78f 78f
10:50pm 7ft 9s 6s 18 20 mph 1016mb 78f 78f
9:50pm 8ft 10s 7s 18 22 mph 1015.8mb 78f 78f
8:50pm 7.5ft 9s 7s 18 20 mph 1015.3mb 78f 78f
7:50pm 7.5ft 9s 7s 16 18 mph 1014.7mb 78f 78f
6:50pm 7.5ft 9s 7s 18 20 mph 1014.3mb 78f 78f
5:50pm 8ft 9s 7s 18 22 mph 1014.1mb 78f 78f
4:50pm 7.5ft 9s 7s 16 18 mph 1014.1mb 78f 78f
3:50pm 8ft 9s 7s 16 18 mph 1014.5mb 78f 78f
2:50pm 7.5ft 9s 7s 16 18 mph 1014.5mb 78f 78f
1:50pm 7ft 9s 7s 16 18 mph 1014.9mb 78f 77f
12:50pm 7.5ft 9s 6s 16 18 mph 1015.2mb 78f 76f
11:50am 8.5ft 10s 7s 18 22 mph 1015.6mb 78f 77f
10:50am 8ft 8s 6s 20 25 mph 1015.7mb 78f 78f
9:50am 7ft 8s 6s 20 25 mph 1015.8mb 78f 78f
8:50am 7ft 9s 6s 20 22 mph 1015.6mb 78f 78f
7:50am 7ft 9s 6s 18 22 mph 1015.5mb 78f 74f
6:50am 7ft 8s 6s 20 25 mph 1014.9mb 78f 77f
5:50am 7ft 8s 6s 11 13 mph 1014.9mb 78f 76f
4:50am 7ft 9s 6s 20 27 mph 1014.4mb 78f 76f
3:50am 7ft 9s 6s 16 20 mph 1014.4mb 78f 77f
2:50am 7ft 9s 6s 16 20 mph 1014.7mb 78f 77f
1:50am 7.5ft 9s 6s 16 18 mph 1015.1mb 78f 77f
12:50am 7.5ft 9s 7s 16 20 mph 1015.5mb 78f 77f
Sun 07/24 11:50pm 8.5ft 9s 7s 18 20 mph 1015.8mb 78f 77f
10:50pm 8ft 9s 6s 18 22 mph 1015.9mb 78f 77f
9:50pm 8ft 9s 6s 20 22 mph 1015.6mb 78f 77f
8:50pm 7ft 10s 6s 20 25 mph 1015.2mb 78f 78f
7:50pm 8ft 10s 6s 20 25 mph 1014.8mb 78f 77f
6:50pm 8ft 9s 6s 22 25 mph 1014.3mb 78f 77f
5:50pm 7.5ft 10s 6s 20 22 mph 1014.1mb 78f 78f
4:50pm 8ft 9s 7s 20 25 mph 1014.1mb 78f 77f
3:50pm 7ft 10s 6s 20 25 mph 1014.4mb 78f 77f
2:50pm 7ft 10s 6s 20 22 mph 1014.9mb 78f 77f
1:50pm 7ft 9s 7s 20 22 mph 1015.4mb 78f 77f
12:50pm 7.5ft 10s 7s 18 22 mph 1015.9mb 78f 77f
11:50am 7ft 10s 7s 18 22 mph 1016.5mb 78f 77f
10:50am 7.5ft 10s 7s 18 20 mph 1016.8mb 78f 77f
9:50am 8ft 11s 7s 18 20 mph 1016.8mb 78f 77f
8:50am 7ft 10s 6s 18 20 mph 1016.7mb 78f 77f